Time;durP1;ratioP1;P1;durP2;ratioP2;P2;SDS_P1;SDS_P2;PMS_P1;PMS_P2;Temp;Humidity;BMP_temperature;BMP_pressure;BME280_temperature;BME280_humidity;BME280_pressure;Samples;Min_cycle;Max_cycle;Signal;HPM_P1;HPM_P2
2022/10/19 00:01:35;;;;;;;7.03;2.72;;;;;;;;;;4877307;28;20047;-85
2022/10/19 00:04:01;;;;;;;4.68;2.33;;;;;;;;;;4932183;28;20031;-85
2022/10/19 00:06:32;;;;;;;4.45;2.55;;;;;;;;;;4928055;28;20031;-86
2022/10/19 00:09:17;;;;;;;4.65;2.60;;;;;;;;;;4951399;28;20043;-85
2022/10/19 00:11:45;;;;;;;6.07;2.40;;;;;;;;;;4953188;28;20039;-84
2022/10/19 00:14:13;;;;;;;;;;;;;;;;;;4953161;28;20039;-85
2022/10/19 00:16:38;;;;;;;;;;;;;;;;;;4922546;28;19973;-85
2022/10/19 00:19:07;;;;;;;4.50;2.25;;;;;;;;;;4938636;28;19926;-85
2022/10/19 00:21:33;;;;;;;4.40;2.20;;;;;;;;;;4922742;28;20063;-84
2022/10/19 00:23:59;;;;;;;10.60;2.28;;;;;;;;;;4921861;28;20039;-85
2022/10/19 00:26:24;;;;;;;6.30;2.40;;;;;;;;;;4922372;28;20448;-85
2022/10/19 00:28:52;;;;;;;4.78;2.17;;;;;;;;;;4923056;28;20511;-85
2022/10/19 00:31:18;;;;;;;7.05;2.22;;;;;;;;;;4934747;28;20057;-86
2022/10/19 00:33:45;;;;;;;5.03;2.38;;;;;;;;;;4921700;28;20108;-85
2022/10/19 00:36:23;;;;;;;4.80;2.22;;;;;;;;;;4936519;28;21167;-85
2022/10/19 00:38:49;;;;;;;3.97;1.98;;;;;;;;;;4960227;28;20142;-85
2022/10/19 00:41:15;;;;;;;4.47;2.15;;;;;;;;;;4924694;28;20035;-84
2022/10/19 00:44:00;;;;;;;3.80;1.92;;;;;;;;;;4953196;28;20512;-85
2022/10/19 00:46:28;;;;;;;3.95;1.95;;;;;;;;;;4959437;28;20051;-85
2022/10/19 00:48:54;;;;;;;;;;;;;;;;;;4936295;28;20372;-85
2022/10/19 00:51:20;;;;;;;7.00;2.10;;;;;;;;;;4921588;28;19958;-84
2022/10/19 00:53:45;;;;;;;4.78;2.30;;;;;;;;;;4922032;28;20106;-85
2022/10/19 00:56:13;;;;;;;5.70;2.13;;;;;;;;;;4953451;28;20507;-84
2022/10/19 00:58:40;;;;;;;5.65;2.25;;;;;;;;;;4943520;28;20082;-84
2022/10/19 01:01:08;;;;;;;4.68;1.90;;;;;;;;;;4920635;28;20044;-84
2022/10/19 01:03:33;;;;;;;7.63;2.10;;;;;;;;;;4927508;28;20054;-85
2022/10/19 01:05:59;;;;;;;5.40;1.77;;;;;;;;;;4927222;28;20048;-85
2022/10/19 01:08:25;;;;;;;6.32;1.85;;;;;;;;;;4956272;28;20054;-85
2022/10/19 01:11:22;;;;;;;3.97;1.65;;;;;;;;;;4935855;28;20035;-85
2022/10/19 01:14:03;;;;;;;5.07;1.90;;;;;;;;;;4943802;28;20047;-85
2022/10/19 01:17:02;;;;;;;5.68;1.77;;;;;;;;;;4941055;28;20063;-85
2022/10/19 01:20:05;;;;;;;4.45;1.70;;;;;;;;;;4951271;28;20441;-85
2022/10/19 01:22:49;;;;;;;4.88;1.90;;;;;;;;;;4967961;28;20492;-85
2022/10/19 01:25:36;;;;;;;4.65;1.63;;;;;;;;;;4951528;28;20039;-85
2022/10/19 01:28:42;;;;;;;3.75;1.70;;;;;;;;;;4937009;28;20495;-85
2022/10/19 01:31:32;;;;;;;6.10;1.70;;;;;;;;;;4945778;28;20038;-84
2022/10/19 01:34:06;;;;;;;5.15;1.73;;;;;;;;;;4963206;28;20841;-85
2022/10/19 01:36:54;;;;;;;5.30;2.05;;;;;;;;;;4959030;28;20027;-85
2022/10/19 01:39:33;;;;;;;5.60;1.52;;;;;;;;;;4946766;28;20130;-84
2022/10/19 01:42:01;;;;;;;6.28;1.90;;;;;;;;;;4927011;28;20120;-84
2022/10/19 01:44:35;;;;;;;6.03;2.35;;;;;;;;;;4930982;28;20057;-85
2022/10/19 01:47:04;;;;;;;6.00;1.77;;;;;;;;;;4970730;28;20054;-85
2022/10/19 01:49:56;;;;;;;4.18;1.63;;;;;;;;;;4957492;28;20036;-84
2022/10/19 01:52:22;;;;;;;5.07;1.60;;;;;;;;;;4928714;28;20039;-82
2022/10/19 01:54:50;;;;;;;7.53;2.60;;;;;;;;;;4921557;28;20039;-85
2022/10/19 01:57:20;;;;;;;5.07;1.35;;;;;;;;;;4930758;28;20061;-84
2022/10/19 01:59:47;;;;;;;5.78;1.80;;;;;;;;;;4927301;28;20039;-85
2022/10/19 02:02:13;;;;;;;5.07;1.77;;;;;;;;;;4952907;28;20044;-85
2022/10/19 02:04:39;;;;;;;7.45;1.67;;;;;;;;;;4930551;28;20067;-84
2022/10/19 02:07:06;;;;;;;5.40;1.52;;;;;;;;;;4954033;28;20031;-85
2022/10/19 02:09:32;;;;;;;4.28;1.60;;;;;;;;;;4940526;28;20043;-85
2022/10/19 02:12:00;;;;;;;3.15;1.30;;;;;;;;;;4936593;28;20119;-85
2022/10/19 02:14:29;;;;;;;5.38;1.38;;;;;;;;;;4931911;28;20049;-84
2022/10/19 02:17:16;;;;;;;4.57;1.58;;;;;;;;;;4937907;28;20035;-85
2022/10/19 02:19:42;;;;;;;7.78;1.52;;;;;;;;;;4924786;28;20054;-84
2022/10/19 02:22:07;;;;;;;4.28;1.23;;;;;;;;;;4922223;28;20044;-83
2022/10/19 02:24:33;;;;;;;4.15;1.92;;;;;;;;;;4926920;28;20039;-84
2022/10/19 02:26:59;;;;;;;4.28;1.50;;;;;;;;;;4935711;28;20483;-84
2022/10/19 02:29:25;;;;;;;6.15;1.45;;;;;;;;;;4957042;28;20040;-84
2022/10/19 02:31:53;;;;;;;3.88;1.27;;;;;;;;;;4957556;28;20447;-84
2022/10/19 02:34:18;;;;;;;3.92;1.38;;;;;;;;;;4939159;28;20512;-84
2022/10/19 02:36:44;;;;;;;3.50;1.40;;;;;;;;;;4937251;28;20032;-84
2022/10/19 02:39:09;;;;;;;5.28;1.42;;;;;;;;;;4926159;28;20035;-84
2022/10/19 02:41:35;;;;;;;4.40;1.40;;;;;;;;;;4929029;28;20051;-84
2022/10/19 02:44:03;;;;;;;3.60;1.30;;;;;;;;;;4943651;28;20047;-86
2022/10/19 02:46:36;;;;;;;3.65;1.10;;;;;;;;;;4924289;28;20056;-86
2022/10/19 02:49:03;;;;;;;3.03;1.30;;;;;;;;;;4923183;28;20049;-86
2022/10/19 02:51:36;;;;;;;3.42;1.23;;;;;;;;;;4922821;28;20054;-85
2022/10/19 02:54:03;;;;;;;3.17;1.13;;;;;;;;;;4937970;28;20118;-86
2022/10/19 02:56:29;;;;;;;4.20;1.65;;;;;;;;;;4922246;28;20035;-84
2022/10/19 02:58:54;;;;;;;3.53;1.17;;;;;;;;;;4931934;28;20046;-86
2022/10/19 03:01:20;;;;;;;3.03;1.13;;;;;;;;;;4923758;28;20122;-86
2022/10/19 03:03:45;;;;;;;3.38;1.15;;;;;;;;;;4929310;28;20039;-85
2022/10/19 03:06:10;;;;;;;3.58;1.40;;;;;;;;;;4936767;28;20048;-86
2022/10/19 03:08:38;;;;;;;2.90;0.98;;;;;;;;;;4918499;28;20042;-82
2022/10/19 03:11:04;;;;;;;;;;;;;;;;;;4938707;28;20110;-82
2022/10/19 03:13:29;;;;;;;2.63;0.90;;;;;;;;;;4929581;28;19919;-83
2022/10/19 03:15:54;;;;;;;3.13;0.98;;;;;;;;;;4919823;28;20043;-82
2022/10/19 03:18:20;;;;;;;3.22;0.90;;;;;;;;;;4939006;28;20043;-82
2022/10/19 03:20:45;;;;;;;4.28;1.10;;;;;;;;;;4929452;28;20066;-83
2022/10/19 03:23:10;;;;;;;4.60;0.98;;;;;;;;;;4957006;28;20039;-83
2022/10/19 03:25:36;;;;;;;3.10;1.02;;;;;;;;;;4936324;28;20083;-83
2022/10/19 03:28:01;;;;;;;4.03;1.20;;;;;;;;;;4923903;28;20447;-83
2022/10/19 03:30:27;;;;;;;4.13;1.33;;;;;;;;;;4919531;28;20043;-83
2022/10/19 03:32:52;;;;;;;3.13;1.02;;;;;;;;;;4925649;28;20102;-82
2022/10/19 03:35:18;;;;;;;5.30;1.20;;;;;;;;;;4923547;28;20066;-83
2022/10/19 03:37:43;;;;;;;3.15;1.00;;;;;;;;;;4932972;28;20032;-83
2022/10/19 03:40:09;;;;;;;4.65;1.20;;;;;;;;;;4927940;28;20066;-81
2022/10/19 03:42:34;;;;;;;4.32;1.27;;;;;;;;;;4927854;28;20047;-83
2022/10/19 03:44:59;;;;;;;2.38;0.90;;;;;;;;;;4955339;28;20058;-82
2022/10/19 03:47:25;;;;;;;4.72;0.82;;;;;;;;;;4921237;28;20049;-82
2022/10/19 03:49:50;;;;;;;2.20;0.80;;;;;;;;;;4929830;28;20046;-83
2022/10/19 03:52:17;;;;;;;3.90;1.00;;;;;;;;;;4934198;28;20439;-83
2022/10/19 03:54:43;;;;;;;2.92;1.08;;;;;;;;;;4936593;28;20364;-82
2022/10/19 03:57:08;;;;;;;2.58;0.90;;;;;;;;;;4927731;28;20051;-82
2022/10/19 03:59:33;;;;;;;4.13;1.10;;;;;;;;;;4930019;28;20451;-82
2022/10/19 04:01:59;;;;;;;2.08;0.63;;;;;;;;;;4922617;28;20040;-87
2022/10/19 04:04:24;;;;;;;2.47;0.90;;;;;;;;;;4936350;28;20746;-85
2022/10/19 04:06:52;;;;;;;2.42;0.70;;;;;;;;;;4927389;28;20466;-87
2022/10/19 04:09:19;;;;;;;3.60;0.70;;;;;;;;;;4920787;28;20048;-85
2022/10/19 04:11:44;;;;;;;2.72;0.65;;;;;;;;;;4928301;28;20040;-86
2022/10/19 04:14:11;;;;;;;2.55;1.00;;;;;;;;;;4923796;28;20058;-86
2022/10/19 04:16:37;;;;;;;1.90;0.60;;;;;;;;;;4926980;28;20040;-83
2022/10/19 04:19:02;;;;;;;2.67;0.90;;;;;;;;;;4950447;28;20043;-83
2022/10/19 04:21:33;;;;;;;2.97;0.93;;;;;;;;;;4921554;28;20384;-83
2022/10/19 04:24:01;;;;;;;4.20;1.05;;;;;;;;;;4921629;28;20510;-83
2022/10/19 04:26:27;;;;;;;1.92;0.68;;;;;;;;;;4964921;28;20491;-83
2022/10/19 04:28:58;;;;;;;2.47;0.93;;;;;;;;;;4921021;28;20095;-85
2022/10/19 04:31:24;;;;;;;1.33;0.50;;;;;;;;;;4928429;28;20566;-85
2022/10/19 04:33:50;;;;;;;3.58;1.13;;;;;;;;;;4928590;28;20078;-85
2022/10/19 04:36:15;;;;;;;1.90;0.70;;;;;;;;;;4934177;28;20053;-83
2022/10/19 04:38:43;;;;;;;5.72;1.13;;;;;;;;;;4921293;28;20040;-84
2022/10/19 04:41:13;;;;;;;2.55;0.80;;;;;;;;;;4925425;28;20044;-83
2022/10/19 04:43:38;;;;;;;1.70;0.50;;;;;;;;;;4933761;28;20043;-81
2022/10/19 04:46:06;;;;;;;3.65;0.60;;;;;;;;;;4955074;28;20059;-81
2022/10/19 04:48:33;;;;;;;2.97;0.70;;;;;;;;;;4926518;28;20043;-83
2022/10/19 04:50:58;;;;;;;0.75;0.40;;;;;;;;;;4918430;28;20648;-81
2022/10/19 04:53:24;;;;;;;3.45;0.60;;;;;;;;;;4951237;28;20039;-81
2022/10/19 04:55:49;;;;;;;1.92;0.50;;;;;;;;;;4935105;28;20039;-82
2022/10/19 04:58:14;;;;;;;2.22;0.68;;;;;;;;;;4935954;28;20857;-81
2022/10/19 05:00:40;;;;;;;1.80;0.60;;;;;;;;;;4932873;28;20487;-83
2022/10/19 05:03:05;;;;;;;2.33;0.52;;;;;;;;;;4935436;28;20040;-82
2022/10/19 05:05:31;;;;;;;1.67;0.52;;;;;;;;;;4924393;28;20062;-82
2022/10/19 05:07:57;;;;;;;1.50;0.50;;;;;;;;;;4932468;28;20031;-81
2022/10/19 05:10:22;;;;;;;1.10;0.52;;;;;;;;;;4930193;28;20063;-80
2022/10/19 05:12:47;;;;;;;1.65;0.65;;;;;;;;;;4925512;28;20312;-81
2022/10/19 05:15:13;;;;;;;2.03;0.60;;;;;;;;;;4929531;28;20139;-81
2022/10/19 05:17:38;;;;;;;2.05;0.50;;;;;;;;;;4924773;28;20079;-80
2022/10/19 05:20:04;;;;;;;3.03;0.63;;;;;;;;;;4948130;28;20039;-83
2022/10/19 05:22:30;;;;;;;3.53;0.57;;;;;;;;;;4922009;28;20506;-83
2022/10/19 05:24:55;;;;;;;2.85;0.57;;;;;;;;;;4924872;28;20209;-83
2022/10/19 05:27:21;;;;;;;3.53;0.60;;;;;;;;;;4930945;28;20050;-83
2022/10/19 05:29:46;;;;;;;2.38;0.63;;;;;;;;;;4932783;28;20059;-83
2022/10/19 05:32:12;;;;;;;1.88;0.43;;;;;;;;;;4932171;28;20097;-82
2022/10/19 05:34:37;;;;;;;3.42;0.63;;;;;;;;;;4931155;28;20070;-83
2022/10/19 05:37:02;;;;;;;3.40;0.60;;;;;;;;;;4932138;28;20047;-83
2022/10/19 05:39:28;;;;;;;3.42;0.65;;;;;;;;;;4927310;28;20043;-83
2022/10/19 05:41:56;;;;;;;2.25;0.63;;;;;;;;;;4939024;28;20059;-83
2022/10/19 05:44:22;;;;;;;3.05;0.70;;;;;;;;;;4940742;28;20063;-82
2022/10/19 05:46:49;;;;;;;2.38;0.68;;;;;;;;;;4923129;28;20466;-82
2022/10/19 05:49:15;;;;;;;1.48;0.50;;;;;;;;;;4924657;28;20043;-82
2022/10/19 05:51:41;;;;;;;1.92;0.57;;;;;;;;;;4922636;28;20842;-82
2022/10/19 05:54:07;;;;;;;3.83;0.70;;;;;;;;;;4932382;28;20031;-81
2022/10/19 05:56:33;;;;;;;2.05;0.60;;;;;;;;;;4924984;28;20043;-81
2022/10/19 05:59:01;;;;;;;3.13;0.50;;;;;;;;;;4960092;28;20047;-81
2022/10/19 06:01:27;;;;;;;2.53;0.60;;;;;;;;;;4936805;28;20039;-81
2022/10/19 06:03:54;;;;;;;3.80;1.15;;;;;;;;;;4931215;28;20621;-81
2022/10/19 06:06:20;;;;;;;;;;;;;;;;;;4953227;28;20070;-82
2022/10/19 06:08:46;;;;;;;2.08;1.02;;;;;;;;;;4930585;28;20422;-81
2022/10/19 06:11:20;;;;;;;1.90;0.50;;;;;;;;;;4937515;28;20031;-80
2022/10/19 06:13:47;;;;;;;2.03;0.60;;;;;;;;;;4941376;28;20039;-81
2022/10/19 06:16:14;;;;;;;2.45;0.68;;;;;;;;;;4930172;28;20036;-81
2022/10/19 06:18:42;;;;;;;3.55;0.85;;;;;;;;;;4970575;28;20495;-81
2022/10/19 06:21:13;;;;;;;4.50;0.80;;;;;;;;;;4939779;28;20039;-83
2022/10/19 06:23:39;;;;;;;2.80;0.73;;;;;;;;;;4945166;28;20574;-82
2022/10/19 06:26:09;;;;;;;2.47;0.60;;;;;;;;;;4922961;28;20027;-82
2022/10/19 06:28:36;;;;;;;2.95;0.70;;;;;;;;;;4939013;28;20095;-82
2022/10/19 06:31:02;;;;;;;1.30;0.50;;;;;;;;;;4930588;28;20043;-82
2022/10/19 06:33:28;;;;;;;2.80;0.80;;;;;;;;;;4958417;28;20039;-82
2022/10/19 06:35:56;;;;;;;3.95;0.65;;;;;;;;;;4929375;28;20050;-82
2022/10/19 06:38:21;;;;;;;;;;;;;;;;;;4940925;28;20094;-82
2022/10/19 06:40:48;;;;;;;2.43;0.70;;;;;;;;;;4923993;28;20366;-83
2022/10/19 06:43:13;;;;;;;2.78;0.70;;;;;;;;;;4930664;28;20283;-82
2022/10/19 06:45:39;;;;;;;3.92;0.68;;;;;;;;;;4926778;28;20164;-83
2022/10/19 06:48:05;;;;;;;4.70;0.60;;;;;;;;;;4929864;28;20039;-82
2022/10/19 06:50:31;;;;;;;2.40;0.60;;;;;;;;;;4929335;28;20379;-83
2022/10/19 06:52:57;;;;;;;3.05;0.68;;;;;;;;;;4931032;28;20079;-83
2022/10/19 06:55:23;;;;;;;2.88;0.70;;;;;;;;;;4935191;28;20039;-81
2022/10/19 06:57:48;;;;;;;2.80;0.75;;;;;;;;;;4920699;28;20443;-82
2022/10/19 07:00:14;;;;;;;2.72;0.60;;;;;;;;;;4930276;28;20039;-82
2022/10/19 07:02:39;;;;;;;2.47;0.60;;;;;;;;;;4935644;28;20054;-82
2022/10/19 07:05:06;;;;;;;1.27;0.40;;;;;;;;;;4923577;28;20134;-82
2022/10/19 07:07:31;;;;;;;1.20;0.50;;;;;;;;;;4923986;28;20046;-82
2022/10/19 07:09:56;;;;;;;1.95;0.57;;;;;;;;;;4937336;28;20035;-82
2022/10/19 07:12:22;;;;;;;1.73;0.70;;;;;;;;;;4925984;28;20784;-82
2022/10/19 07:14:47;;;;;;;1.58;0.50;;;;;;;;;;4919731;28;20063;-83
2022/10/19 07:17:12;;;;;;;4.20;0.90;;;;;;;;;;4929366;28;20043;-83
2022/10/19 07:19:38;;;;;;;4.45;0.60;;;;;;;;;;4925560;28;20050;-83
2022/10/19 07:22:03;;;;;;;4.22;0.82;;;;;;;;;;4920281;28;20058;-82
2022/10/19 07:24:29;;;;;;;2.22;0.80;;;;;;;;;;4950306;28;20079;-83
2022/10/19 07:26:55;;;;;;;3.30;0.60;;;;;;;;;;4927777;28;20035;-83
2022/10/19 07:29:20;;;;;;;2.25;0.60;;;;;;;;;;4923733;28;20039;-82
2022/10/19 07:31:46;;;;;;;1.95;0.55;;;;;;;;;;4933694;28;20498;-83
2022/10/19 07:34:12;;;;;;;2.53;0.52;;;;;;;;;;4942204;28;20043;-82
2022/10/19 07:36:38;;;;;;;1.70;0.53;;;;;;;;;;4936887;28;20039;-82
2022/10/19 07:39:05;;;;;;;2.10;0.50;;;;;;;;;;4954506;28;20403;-82
2022/10/19 07:41:31;;;;;;;2.65;0.60;;;;;;;;;;4922008;28;20065;-83
2022/10/19 07:43:56;;;;;;;1.92;0.40;;;;;;;;;;4929421;28;20531;-83
2022/10/19 07:46:32;;;;;;;2.80;0.50;;;;;;;;;;4920963;28;20923;-82
2022/10/19 07:48:58;;;;;;;2.00;0.50;;;;;;;;;;4929359;28;20043;-83
2022/10/19 07:51:24;;;;;;;1.48;0.60;;;;;;;;;;4929021;28;20424;-81
2022/10/19 07:53:49;;;;;;;3.25;0.50;;;;;;;;;;4936861;28;20518;-82
2022/10/19 07:56:22;;;;;;;1.13;0.40;;;;;;;;;;4939958;28;20039;-82
2022/10/19 07:58:53;;;;;;;0.82;0.30;;;;;;;;;;4940201;28;20039;-82
2022/10/19 08:01:23;;;;;;;2.85;0.40;;;;;;;;;;4930421;28;20495;-82
2022/10/19 08:03:54;;;;;;;1.35;0.47;;;;;;;;;;4966554;28;20395;-82
2022/10/19 08:06:20;;;;;;;1.98;0.45;;;;;;;;;;4922674;28;20667;-82
2022/10/19 08:08:47;;;;;;;2.25;0.70;;;;;;;;;;4935948;28;20138;-82
2022/10/19 08:11:27;;;;;;;3.70;0.93;;;;;;;;;;4927458;28;20058;-82
2022/10/19 08:13:53;;;;;;;4.40;0.50;;;;;;;;;;4930912;28;20230;-82
2022/10/19 08:16:26;;;;;;;2.42;0.57;;;;;;;;;;4941254;28;20122;-82
2022/10/19 08:18:56;;;;;;;2.05;0.35;;;;;;;;;;4967121;28;20415;-83
2022/10/19 08:21:21;;;;;;;3.10;0.50;;;;;;;;;;4924863;28;20067;-83
2022/10/19 08:23:46;;;;;;;2.25;0.47;;;;;;;;;;4952660;28;20078;-82
2022/10/19 08:26:12;;;;;;;1.88;0.43;;;;;;;;;;4922377;28;20039;-82
2022/10/19 08:28:37;;;;;;;2.50;0.50;;;;;;;;;;4922393;28;20043;-82
2022/10/19 08:31:10;;;;;;;0.75;0.30;;;;;;;;;;4927358;28;20036;-82
2022/10/19 08:33:35;;;;;;;2.78;0.40;;;;;;;;;;4928431;28;20490;-82
2022/10/19 08:36:04;;;;;;;2.97;0.50;;;;;;;;;;4927716;28;20118;-82
2022/10/19 08:38:29;;;;;;;3.03;0.50;;;;;;;;;;4928033;28;20039;-82
2022/10/19 08:40:56;;;;;;;4.93;0.68;;;;;;;;;;4924143;28;20369;-82
2022/10/19 08:43:37;;;;;;;0.85;0.40;;;;;;;;;;4952374;28;20047;-82
2022/10/19 08:46:43;;;;;;;3.70;0.63;;;;;;;;;;4920176;28;20566;-82
2022/10/19 08:49:11;;;;;;;1.35;0.45;;;;;;;;;;4923392;28;20081;-82
2022/10/19 08:51:39;;;;;;;1.30;0.40;;;;;;;;;;4927262;28;20043;-82
2022/10/19 08:54:11;;;;;;;1.45;0.50;;;;;;;;;;4933560;28;20035;-82
2022/10/19 08:56:40;;;;;;;2.00;0.50;;;;;;;;;;4928579;28;20116;-82
2022/10/19 08:59:52;;;;;;;3.53;0.55;;;;;;;;;;4917804;28;20094;-82
2022/10/19 09:02:24;;;;;;;3.30;0.80;;;;;;;;;;4923353;28;20043;-81
2022/10/19 09:04:54;;;;;;;2.58;0.60;;;;;;;;;;4943784;28;20059;-82
2022/10/19 09:07:26;;;;;;;2.17;0.47;;;;;;;;;;4922316;28;20082;-82
2022/10/19 09:10:08;;;;;;;4.20;0.70;;;;;;;;;;4932743;28;20075;-82
2022/10/19 09:12:39;;;;;;;2.70;0.55;;;;;;;;;;4934397;28;20048;-82
2022/10/19 09:15:14;;;;;;;1.75;0.50;;;;;;;;;;4936775;28;20403;-81
2022/10/19 09:17:40;;;;;;;5.07;0.60;;;;;;;;;;4942663;28;20444;-82
2022/10/19 09:20:14;;;;;;;2.13;0.50;;;;;;;;;;4928196;28;20042;-83
2022/10/19 09:22:41;;;;;;;1.40;0.77;;;;;;;;;;4923432;28;20042;-82
2022/10/19 09:25:17;;;;;;;1.43;0.40;;;;;;;;;;4956705;28;20085;-82
2022/10/19 09:27:44;;;;;;;3.25;0.82;;;;;;;;;;4921755;28;20521;-82
2022/10/19 09:30:19;;;;;;;;;;;;;;;;;;4954178;28;20039;-82
2022/10/19 09:32:45;;;;;;;2.42;0.50;;;;;;;;;;4928030;28;19925;-82
2022/10/19 09:35:25;;;;;;;1.70;0.50;;;;;;;;;;4918374;28;20044;-82
2022/10/19 09:37:50;;;;;;;1.85;0.52;;;;;;;;;;4935931;28;20036;-82
2022/10/19 09:40:18;;;;;;;1.73;0.50;;;;;;;;;;4919275;28;20439;-82
2022/10/19 09:42:44;;;;;;;1.52;0.40;;;;;;;;;;4936521;28;20047;-82
2022/10/19 09:45:35;;;;;;;1.15;0.43;;;;;;;;;;4927316;28;20039;-81
2022/10/19 09:48:11;;;;;;;2.47;0.30;;;;;;;;;;4914890;28;20043;-82
2022/10/19 09:50:42;;;;;;;4.47;0.85;;;;;;;;;;4966112;28;20110;-82
2022/10/19 09:53:16;;;;;;;2.70;0.73;;;;;;;;;;4931115;28;20194;-82
2022/10/19 09:55:43;;;;;;;1.65;0.60;;;;;;;;;;4931790;28;20930;-82
2022/10/19 09:58:18;;;;;;;4.00;0.40;;;;;;;;;;4939966;28;20031;-82
2022/10/19 10:00:49;;;;;;;2.85;0.85;;;;;;;;;;4958831;28;20035;-82
2022/10/19 10:03:20;;;;;;;0.68;0.35;;;;;;;;;;4922194;28;20122;-82
2022/10/19 10:05:47;;;;;;;1.83;0.43;;;;;;;;;;4935548;28;20071;-82
2022/10/19 10:08:20;;;;;;;1.90;0.50;;;;;;;;;;4920726;28;20375;-81
2022/10/19 10:10:52;;;;;;;3.97;0.40;;;;;;;;;;4938748;28;20028;-81
2022/10/19 10:13:20;;;;;;;1.80;0.50;;;;;;;;;;4955513;28;20094;-81
2022/10/19 10:15:49;;;;;;;;;;;;;;;;;;4937444;28;20510;-82
2022/10/19 10:18:15;;;;;;;1.27;0.40;;;;;;;;;;4926505;28;19955;-82
2022/10/19 10:21:02;;;;;;;1.85;0.52;;;;;;;;;;4926820;28;20237;-82
2022/10/19 10:23:33;;;;;;;2.65;0.50;;;;;;;;;;4951410;28;20043;-82
2022/10/19 10:25:59;;;;;;;2.38;0.50;;;;;;;;;;4939988;28;20043;-82
2022/10/19 10:28:27;;;;;;;2.70;0.52;;;;;;;;;;4923213;28;20040;-82
2022/10/19 10:30:58;;;;;;;1.98;0.40;;;;;;;;;;4935850;28;20040;-82
2022/10/19 10:33:25;;;;;;;1.95;0.70;;;;;;;;;;4952190;28;20063;-81
2022/10/19 10:35:54;;;;;;;2.08;0.60;;;;;;;;;;4918522;29;20028;-82
2022/10/19 10:38:35;;;;;;;1.27;0.50;;;;;;;;;;4937336;28;20043;-82
2022/10/19 10:41:03;;;;;;;2.58;0.88;;;;;;;;;;4939216;28;20503;-81
2022/10/19 10:43:31;;;;;;;1.20;0.40;;;;;;;;;;4920983;28;20069;-82
2022/10/19 10:46:04;;;;;;;1.27;0.30;;;;;;;;;;4925004;28;20376;-82
2022/10/19 10:48:35;;;;;;;0.55;0.30;;;;;;;;;;4925810;28;20534;-82
2022/10/19 10:51:01;;;;;;;1.85;0.32;;;;;;;;;;4929165;28;20035;-82
2022/10/19 10:53:37;;;;;;;2.05;0.45;;;;;;;;;;4933654;28;20499;-81
2022/10/19 10:56:04;;;;;;;1.85;0.30;;;;;;;;;;4953498;28;20175;-82
2022/10/19 10:58:46;;;;;;;2.38;0.47;;;;;;;;;;4936775;28;20071;-82
2022/10/19 11:01:22;;;;;;;2.80;0.40;;;;;;;;;;4922155;28;20765;-82
2022/10/19 11:04:12;;;;;;;1.67;0.32;;;;;;;;;;4928533;28;20035;-82
2022/10/19 11:06:42;;;;;;;1.67;0.30;;;;;;;;;;4928371;28;20471;-82
2022/10/19 11:09:16;;;;;;;1.42;0.40;;;;;;;;;;4952697;28;20503;-82
2022/10/19 11:11:44;;;;;;;0.88;0.30;;;;;;;;;;4937016;28;20044;-82
2022/10/19 11:14:15;;;;;;;1.85;0.40;;;;;;;;;;4923853;28;20122;-82
2022/10/19 11:16:44;;;;;;;1.98;0.47;;;;;;;;;;4941181;28;20043;-82
2022/10/19 11:19:17;;;;;;;2.67;0.40;;;;;;;;;;4922102;28;20035;-82
2022/10/19 11:21:51;;;;;;;2.80;0.80;;;;;;;;;;4944220;28;20043;-82
2022/10/19 11:24:34;;;;;;;1.42;0.40;;;;;;;;;;4939669;28;20142;-82
2022/10/19 11:27:22;;;;;;;1.50;0.30;;;;;;;;;;4922279;28;20052;-82
2022/10/19 11:29:57;;;;;;;3.75;0.60;;;;;;;;;;4951716;28;20523;-83
2022/10/19 11:32:38;;;;;;;2.75;0.40;;;;;;;;;;4966998;28;20035;-82
2022/10/19 11:35:15;;;;;;;0.55;0.20;;;;;;;;;;4933348;28;20063;-81
2022/10/19 11:38:15;;;;;;;0.68;0.17;;;;;;;;;;4934381;28;20035;-82
2022/10/19 11:40:43;;;;;;;2.28;0.50;;;;;;;;;;4913147;28;20038;-81
2022/10/19 11:43:23;;;;;;;1.15;0.25;;;;;;;;;;4936713;28;20341;-82
2022/10/19 11:46:24;;;;;;;2.38;0.40;;;;;;;;;;4934175;28;20046;-82
2022/10/19 11:49:21;;;;;;;0.90;0.25;;;;;;;;;;4908993;28;20035;-82
2022/10/19 11:51:58;;;;;;;1.30;0.20;;;;;;;;;;4951884;28;20526;-82
2022/10/19 11:54:42;;;;;;;;;;;;;;;;;;4951115;28;20550;-82
2022/10/19 11:57:12;;;;;;;2.88;0.30;;;;;;;;;;4937507;28;19923;-82
2022/10/19 12:00:05;;;;;;;1.42;0.30;;;;;;;;;;4939109;28;20466;-82
2022/10/19 12:03:00;;;;;;;0.85;0.20;;;;;;;;;;4939386;28;20529;-82
2022/10/19 12:05:39;;;;;;;0.82;0.20;;;;;;;;;;4922801;28;20142;-81
2022/10/19 12:08:10;;;;;;;0.68;0.20;;;;;;;;;;4936406;28;20047;-82
2022/10/19 12:11:04;;;;;;;0.95;0.20;;;;;;;;;;4932815;28;20511;-82
2022/10/19 12:13:51;;;;;;;1.20;0.30;;;;;;;;;;4934628;28;20504;-82
2022/10/19 12:16:19;;;;;;;2.00;0.30;;;;;;;;;;4953323;28;20106;-83
2022/10/19 12:18:48;;;;;;;;;;;;;;;;;;4954695;28;20031;-82
2022/10/19 12:21:23;;;;;;;1.45;0.40;;;;;;;;;;4920098;28;20005;-82
2022/10/19 12:23:49;;;;;;;0.77;0.30;;;;;;;;;;4951033;28;20134;-82
2022/10/19 12:26:19;;;;;;;0.65;0.22;;;;;;;;;;4924626;28;20090;-82
2022/10/19 12:28:58;;;;;;;2.03;0.28;;;;;;;;;;4937949;28;20031;-82
2022/10/19 12:31:25;;;;;;;1.70;0.30;;;;;;;;;;4927982;28;20519;-81
2022/10/19 12:33:53;;;;;;;1.50;0.43;;;;;;;;;;4943490;28;20036;-82
2022/10/19 12:36:25;;;;;;;1.05;0.30;;;;;;;;;;4936654;28;20043;-82
2022/10/19 12:39:23;;;;;;;0.28;0.20;;;;;;;;;;4936203;28;20040;-82
2022/10/19 12:42:19;;;;;;;1.75;0.28;;;;;;;;;;4934846;28;20067;-82
2022/10/19 12:45:10;;;;;;;0.70;0.30;;;;;;;;;;4935716;28;20436;-83
2022/10/19 12:47:36;;;;;;;2.80;0.90;;;;;;;;;;4943437;28;20062;-83
2022/10/19 12:50:02;;;;;;;0.88;0.30;;;;;;;;;;4935123;28;20039;-83
2022/10/19 12:52:47;;;;;;;0.93;0.22;;;;;;;;;;4934519;28;20044;-82
2022/10/19 12:55:15;;;;;;;0.55;0.20;;;;;;;;;;4942738;28;20039;-82
2022/10/19 12:57:46;;;;;;;1.42;0.30;;;;;;;;;;4934200;28;20533;-82
2022/10/19 13:00:28;;;;;;;2.05;0.55;;;;;;;;;;4948643;28;20040;-83
2022/10/19 13:02:59;;;;;;;3.47;0.40;;;;;;;;;;4927190;28;20040;-83
2022/10/19 13:05:27;;;;;;;1.13;0.38;;;;;;;;;;4927846;28;20060;-82
2022/10/19 13:07:52;;;;;;;1.35;0.30;;;;;;;;;;4922656;28;20031;-83
2022/10/19 13:10:21;;;;;;;1.52;0.35;;;;;;;;;;4918358;28;20399;-82
2022/10/19 13:12:47;;;;;;;1.58;0.40;;;;;;;;;;4921946;28;20039;-82
2022/10/19 13:15:34;;;;;;;2.08;0.35;;;;;;;;;;4954646;28;20071;-82
2022/10/19 13:18:00;;;;;;;;;;;;;;;;;;4937958;28;20071;-82
2022/10/19 13:20:26;;;;;;;1.23;0.30;;;;;;;;;;4919459;28;19950;-82
2022/10/19 13:22:58;;;;;;;1.58;0.25;;;;;;;;;;4944412;28;20104;-82
2022/10/19 13:25:34;;;;;;;1.27;0.43;;;;;;;;;;4934188;28;20053;-82
2022/10/19 13:28:05;;;;;;;1.80;0.25;;;;;;;;;;4932654;28;20098;-81
2022/10/19 13:30:45;;;;;;;1.42;0.30;;;;;;;;;;4936315;28;20043;-84
2022/10/19 13:33:32;;;;;;;0.45;0.10;;;;;;;;;;4940386;28;20084;-85
2022/10/19 13:35:57;;;;;;;1.40;0.30;;;;;;;;;;4938517;28;20043;-84
2022/10/19 13:38:27;;;;;;;1.10;0.25;;;;;;;;;;4938763;28;20074;-84
2022/10/19 13:41:12;;;;;;;1.23;0.28;;;;;;;;;;4937570;28;20396;-86
2022/10/19 13:44:03;;;;;;;1.27;0.30;;;;;;;;;;4933203;28;20118;-86
2022/10/19 13:46:28;;;;;;;0.63;0.20;;;;;;;;;;4928591;28;20043;-85
2022/10/19 13:49:00;;;;;;;1.03;0.27;;;;;;;;;;4947304;28;20408;-85
2022/10/19 13:51:46;;;;;;;1.52;0.30;;;;;;;;;;4939179;28;20654;-85
2022/10/19 13:54:38;;;;;;;0.63;0.30;;;;;;;;;;4968320;28;20051;-85
2022/10/19 13:57:33;;;;;;;1.33;0.20;;;;;;;;;;4947727;28;20111;-86
2022/10/19 14:00:20;;;;;;;1.35;0.30;;;;;;;;;;4938584;28;20035;-85
2022/10/19 14:02:57;;;;;;;2.33;0.40;;;;;;;;;;4921547;28;20062;-86
2022/10/19 14:05:53;;;;;;;0.85;0.20;;;;;;;;;;4927306;28;20047;-86
2022/10/19 14:08:36;;;;;;;2.00;0.30;;;;;;;;;;4939500;28;20043;-86
2022/10/19 14:11:16;;;;;;;0.73;0.30;;;;;;;;;;4939006;28;20079;-84
2022/10/19 14:13:42;;;;;;;1.08;0.40;;;;;;;;;;4970500;28;20051;-84
2022/10/19 14:16:17;;;;;;;2.72;0.50;;;;;;;;;;4930274;28;20036;-85
2022/10/19 14:18:42;;;;;;;1.13;0.28;;;;;;;;;;4945659;28;20518;-85
2022/10/19 14:21:08;;;;;;;2.05;0.40;;;;;;;;;;4930558;28;20031;-85
2022/10/19 14:23:38;;;;;;;0.93;0.40;;;;;;;;;;4937832;28;20035;-86
2022/10/19 14:26:06;;;;;;;1.50;0.30;;;;;;;;;;4931215;28;20031;-85
2022/10/19 14:28:32;;;;;;;1.00;0.30;;;;;;;;;;4947760;28;20447;-85
2022/10/19 14:31:05;;;;;;;2.97;0.40;;;;;;;;;;4930312;28;20039;-85
2022/10/19 14:33:33;;;;;;;1.23;0.30;;;;;;;;;;4937752;28;20067;-86
2022/10/19 14:35:58;;;;;;;0.75;0.28;;;;;;;;;;4935754;28;20039;-85
2022/10/19 14:38:31;;;;;;;0.60;0.28;;;;;;;;;;4923010;28;20031;-85
2022/10/19 14:40:56;;;;;;;0.80;0.22;;;;;;;;;;4924220;28;20049;-85
2022/10/19 14:43:30;;;;;;;1.20;0.40;;;;;;;;;;4931529;28;20039;-85
2022/10/19 14:46:02;;;;;;;1.40;0.40;;;;;;;;;;4937302;28;20035;-86
2022/10/19 14:48:28;;;;;;;3.53;0.40;;;;;;;;;;4969952;28;20443;-86
2022/10/19 14:50:55;;;;;;;0.50;0.22;;;;;;;;;;4930892;28;20054;-85
2022/10/19 14:53:20;;;;;;;;;;;;;;;;;;4925152;28;20042;-85
2022/10/19 14:55:47;;;;;;;2.07;0.30;;;;;;;;;;4944203;28;19915;-84
2022/10/19 14:58:16;;;;;;;1.30;0.30;;;;;;;;;;4922784;28;21099;-85
2022/10/19 15:00:44;;;;;;;1.08;0.30;;;;;;;;;;4923228;28;20504;-84
2022/10/19 15:03:11;;;;;;;1.13;0.30;;;;;;;;;;4939429;28;20419;-84
2022/10/19 15:05:41;;;;;;;1.48;0.30;;;;;;;;;;4954065;28;20050;-85
2022/10/19 15:08:32;;;;;;;1.17;0.40;;;;;;;;;;4930475;28;20040;-85